createdAt,value
2022-12-11T00:01:57.544Z,13.45
2022-12-11T00:04:24.284Z,13.35
2022-12-11T00:06:51.044Z,12.55
2022-12-11T00:09:18.869Z,13.77
2022-12-11T00:11:45.636Z,11.95
2022-12-11T00:14:13.114Z,15.00
2022-12-11T00:16:40.046Z,15.73
2022-12-11T00:19:06.873Z,12.25
2022-12-11T00:21:33.717Z,13.20
2022-12-11T00:24:00.409Z,13.25
2022-12-11T00:26:27.001Z,12.52
2022-12-11T00:28:55.558Z,12.75
2022-12-11T00:31:24.144Z,12.73
2022-12-11T00:33:51.411Z,14.07
2022-12-11T00:36:21.827Z,15.10
2022-12-11T00:38:49.590Z,13.82
2022-12-11T00:41:17.157Z,10.05
2022-12-11T00:43:44.178Z,14.18
2022-12-11T00:46:11.587Z,13.88
2022-12-11T00:48:38.307Z,12.80
2022-12-11T00:51:05.068Z,13.18
2022-12-11T00:53:31.693Z,11.50
2022-12-11T00:55:58.319Z,11.93
2022-12-11T00:58:24.942Z,14.98
2022-12-11T01:00:51.984Z,12.20
2022-12-11T01:03:18.737Z,12.93
2022-12-11T01:05:53.600Z,10.65
2022-12-11T01:08:20.490Z,12.50
2022-12-11T01:10:47.152Z,10.77
2022-12-11T01:13:13.806Z,13.13
2022-12-11T01:15:45.399Z,11.75
2022-12-11T01:18:14.400Z,13.02
2022-12-11T01:20:42.561Z,10.68
2022-12-11T01:23:13.074Z,13.40
2022-12-11T01:25:40.097Z,12.43
2022-12-11T01:28:07.813Z,11.25
2022-12-11T01:30:35.786Z,12.27
2022-12-11T01:33:02.703Z,10.98
2022-12-11T01:35:29.304Z,10.55
2022-12-11T01:37:56.072Z,11.35
2022-12-11T01:40:23.026Z,12.15
2022-12-11T01:42:50.326Z,12.38
2022-12-11T01:45:38.912Z,12.93
2022-12-11T01:48:12.324Z,12.32
2022-12-11T01:50:54.892Z,12.35
2022-12-11T01:53:27.740Z,11.35
2022-12-11T01:55:57.104Z,12.23
2022-12-11T01:58:29.071Z,12.25
2022-12-11T02:00:56.917Z,10.18
2022-12-11T02:03:23.544Z,10.32
2022-12-11T02:05:50.244Z,11.25
2022-12-11T02:08:17.094Z,11.13
2022-12-11T02:11:05.662Z,11.65
2022-12-11T02:14:09.104Z,11.30
2022-12-11T02:16:56.519Z,9.63
2022-12-11T02:19:53.263Z,11.40
2022-12-11T02:22:28.265Z,10.40
2022-12-11T02:25:42.945Z,11.05
2022-12-11T02:28:38.158Z,11.27
2022-12-11T02:31:12.340Z,10.75
2022-12-11T02:33:52.330Z,10.35
2022-12-11T02:36:23.637Z,10.52
2022-12-11T02:38:53.368Z,12.02
2022-12-11T02:41:23.182Z,9.90
2022-12-11T02:43:50.802Z,11.85
2022-12-11T02:46:20.637Z,13.15
2022-12-11T02:48:50.096Z,12.13
2022-12-11T02:51:21.999Z,11.80
2022-12-11T02:53:51.373Z,11.52
2022-12-11T02:56:29.411Z,12.80
2022-12-11T02:59:01.831Z,10.90
2022-12-11T03:01:29.138Z,13.88
2022-12-11T03:03:56.577Z,11.27
2022-12-11T03:06:31.383Z,12.10
2022-12-11T03:08:57.847Z,11.82
2022-12-11T03:11:24.301Z,14.90
2022-12-11T03:13:51.432Z,11.82
2022-12-11T03:16:29.506Z,15.07
2022-12-11T03:19:08.897Z,13.27
2022-12-11T03:21:48.773Z,13.30
2022-12-11T03:24:23.116Z,13.50
2022-12-11T03:26:56.865Z,11.32
2022-12-11T03:29:30.175Z,12.27
2022-12-11T03:32:06.892Z,12.45
2022-12-11T03:34:44.513Z,11.75
2022-12-11T03:37:13.869Z,13.50
2022-12-11T03:39:47.188Z,13.48
2022-12-11T03:42:16.660Z,12.02
2022-12-11T03:44:48.215Z,12.18
2022-12-11T03:47:20.457Z,10.23
2022-12-11T03:49:49.143Z,11.32
2022-12-11T03:52:17.258Z,11.43
2022-12-11T03:54:46.176Z,11.02
2022-12-11T03:57:21.282Z,11.88
2022-12-11T03:59:48.593Z,10.90
2022-12-11T04:02:15.103Z,12.88
2022-12-11T04:04:42.365Z,11.80
2022-12-11T04:07:09.593Z,11.60
2022-12-11T04:09:36.313Z,9.98
2022-12-11T04:12:03.018Z,8.82
2022-12-11T04:14:48.141Z,10.00
2022-12-11T04:17:34.649Z,11.00
2022-12-11T04:20:19.794Z,9.70
2022-12-11T04:23:04.747Z,10.68
2022-12-11T04:25:31.248Z,11.73
2022-12-11T04:27:57.781Z,11.57
2022-12-11T04:30:30.809Z,11.18
2022-12-11T04:33:00.432Z,9.80
2022-12-11T04:35:27.253Z,10.18
2022-12-11T04:37:53.740Z,11.20
2022-12-11T04:40:20.398Z,11.25
2022-12-11T04:42:47.021Z,9.90
2022-12-11T04:45:14.023Z,11.93
2022-12-11T04:47:41.644Z,10.52
2022-12-11T04:50:10.283Z,9.88
2022-12-11T04:52:36.830Z,9.77
2022-12-11T04:55:08.113Z,12.30
2022-12-11T04:57:35.120Z,10.68
2022-12-11T05:00:02.091Z,10.88
2022-12-11T05:02:28.645Z,10.15
2022-12-11T05:04:55.139Z,10.45
2022-12-11T05:07:21.629Z,11.45
2022-12-11T05:09:48.104Z,10.90
2022-12-11T05:12:14.610Z,12.38
2022-12-11T05:14:41.063Z,9.65
2022-12-11T05:17:07.554Z,10.07
2022-12-11T05:19:34.035Z,9.32
2022-12-11T05:22:00.636Z,11.05
2022-12-11T05:24:27.079Z,11.48
2022-12-11T05:26:53.566Z,9.82
2022-12-11T05:29:20.255Z,10.38
2022-12-11T05:31:46.752Z,9.38
2022-12-11T05:34:15.115Z,10.25
2022-12-11T05:36:41.875Z,10.43
2022-12-11T05:39:09.556Z,9.18
2022-12-11T05:41:36.072Z,8.63
2022-12-11T05:44:02.602Z,9.52
2022-12-11T05:46:30.819Z,9.43
2022-12-11T05:49:00.255Z,8.50
2022-12-11T05:51:28.113Z,10.95
2022-12-11T05:53:55.922Z,10.13
2022-12-11T05:56:26.323Z,9.38
2022-12-11T05:58:54.222Z,9.20
2022-12-11T06:01:22.769Z,9.73
2022-12-11T06:03:49.706Z,11.27
2022-12-11T06:06:16.902Z,9.25
2022-12-11T06:08:43.599Z,8.60
2022-12-11T06:11:13.451Z,9.45
2022-12-11T06:13:39.989Z,9.60
2022-12-11T06:16:07.809Z,10.18
2022-12-11T06:18:39.415Z,10.20
2022-12-11T06:21:19.644Z,11.05
2022-12-11T06:23:47.690Z,9.07
2022-12-11T06:26:16.119Z,10.05
2022-12-11T06:28:42.770Z,9.13
2022-12-11T06:31:09.432Z,9.88
2022-12-11T06:33:36.219Z,9.63
2022-12-11T06:36:08.407Z,9.38
2022-12-11T06:38:35.248Z,10.30
2022-12-11T06:41:04.808Z,9.63
2022-12-11T06:43:36.536Z,9.38
2022-12-11T06:46:08.031Z,9.80
2022-12-11T06:48:34.872Z,9.20
2022-12-11T06:51:09.195Z,10.07
2022-12-11T06:53:36.151Z,11.07
2022-12-11T06:56:11.962Z,9.40
2022-12-11T06:58:39.341Z,10.02
2022-12-11T07:01:22.862Z,10.68
2022-12-11T07:03:49.655Z,10.13
2022-12-11T07:06:17.296Z,12.45
2022-12-11T07:08:43.851Z,10.18
2022-12-11T07:11:12.997Z,10.50
2022-12-11T07:13:41.943Z,9.95
2022-12-11T07:16:11.047Z,8.80
2022-12-11T07:18:42.948Z,8.45
2022-12-11T07:21:12.796Z,8.80
2022-12-11T07:23:40.256Z,11.45
2022-12-11T07:26:09.645Z,9.05
2022-12-11T07:28:36.363Z,7.85
2022-12-11T07:31:10.781Z,8.55
2022-12-11T07:33:37.309Z,8.27
2022-12-11T07:36:06.390Z,10.32
2022-12-11T07:38:33.437Z,9.27
2022-12-11T07:41:05.368Z,9.70
2022-12-11T07:46:19.987Z,7.40
2022-12-11T07:48:48.034Z,8.18
2022-12-11T07:51:27.716Z,7.80
2022-12-11T07:53:57.403Z,8.80
2022-12-11T07:56:24.416Z,8.40
2022-12-11T07:58:50.954Z,9.18
2022-12-11T08:01:23.551Z,7.85
2022-12-11T08:03:50.804Z,8.80
2022-12-11T08:06:17.523Z,7.55
2022-12-11T08:08:44.256Z,8.57
2022-12-11T08:11:13.034Z,8.05
2022-12-11T08:13:40.620Z,7.65
2022-12-11T08:16:09.987Z,7.20
2022-12-11T08:18:37.404Z,8.75
2022-12-11T08:21:13.207Z,8.48
2022-12-11T08:23:40.092Z,7.38
2022-12-11T08:26:09.314Z,6.95
2022-12-11T08:28:36.271Z,8.75
2022-12-11T08:31:08.099Z,6.90
2022-12-11T08:33:36.340Z,8.88
2022-12-11T08:36:04.633Z,7.38
2022-12-11T08:38:31.421Z,7.93
2022-12-11T08:40:57.918Z,7.40
2022-12-11T08:43:24.696Z,7.13
2022-12-11T08:45:51.299Z,8.07
2022-12-11T08:48:17.818Z,6.55
2022-12-11T08:50:44.289Z,8.95
2022-12-11T08:53:12.390Z,6.60
2022-12-11T08:55:38.934Z,8.43
2022-12-11T08:58:05.591Z,8.25
2022-12-11T09:00:32.074Z,7.65
2022-12-11T09:02:58.576Z,8.45
2022-12-11T09:05:25.069Z,8.60
2022-12-11T09:07:51.635Z,7.32
2022-12-11T09:10:18.453Z,8.10
2022-12-11T09:12:44.924Z,5.95
2022-12-11T09:15:11.957Z,7.40
2022-12-11T09:17:38.687Z,8.15
2022-12-11T09:20:05.689Z,6.82
2022-12-11T09:22:33.705Z,7.22
2022-12-11T09:25:00.240Z,6.97
2022-12-11T09:27:26.762Z,5.90
2022-12-11T09:29:53.244Z,7.35
2022-12-11T09:32:19.709Z,7.93
2022-12-11T09:34:46.179Z,7.82
2022-12-11T09:37:12.701Z,8.02
2022-12-11T09:39:39.237Z,8.13
2022-12-11T09:42:14.261Z,8.05
2022-12-11T09:44:49.759Z,7.32
2022-12-11T09:47:22.115Z,7.13
2022-12-11T09:49:54.102Z,7.40
2022-12-11T09:52:28.706Z,9.55
2022-12-11T09:55:02.325Z,8.80
2022-12-11T09:57:39.708Z,8.88
2022-12-11T10:00:19.153Z,8.45
2022-12-11T10:03:02.846Z,6.50
2022-12-11T10:05:38.062Z,8.57
2022-12-11T10:08:20.675Z,8.05
2022-12-11T10:10:52.347Z,8.07
2022-12-11T10:13:41.485Z,8.43
2022-12-11T10:16:14.081Z,8.45
2022-12-11T10:18:41.403Z,8.35
2022-12-11T10:21:09.378Z,8.85
2022-12-11T10:23:47.963Z,8.30
2022-12-11T10:26:18.349Z,7.00
2022-12-11T10:28:44.991Z,8.65
2022-12-11T10:31:14.299Z,8.43
2022-12-11T10:34:00.710Z,8.25
2022-12-11T10:36:36.235Z,7.53
2022-12-11T10:39:04.059Z,8.88
2022-12-11T10:41:45.351Z,8.93
2022-12-11T10:44:22.479Z,8.47
2022-12-11T10:47:00.864Z,6.90
2022-12-11T10:49:30.200Z,7.13
2022-12-11T10:52:01.271Z,9.18
2022-12-11T10:54:40.211Z,8.48
2022-12-11T10:57:09.865Z,8.48
2022-12-11T10:59:50.161Z,6.75
2022-12-11T11:02:23.710Z,7.75
2022-12-11T11:04:51.650Z,8.13
2022-12-11T11:07:18.045Z,7.95
2022-12-11T11:09:44.929Z,7.68
2022-12-11T11:12:27.293Z,7.55
2022-12-11T11:15:06.563Z,7.30
2022-12-11T11:17:51.115Z,8.48
2022-12-11T11:20:24.516Z,7.97
2022-12-11T11:22:53.658Z,9.05
2022-12-11T11:25:25.709Z,9.05
2022-12-11T11:30:36.599Z,7.03
2022-12-11T11:33:17.583Z,6.90
2022-12-11T11:35:54.538Z,7.72
2022-12-11T11:39:02.674Z,9.05
2022-12-11T11:41:52.190Z,6.40
2022-12-11T11:44:29.876Z,7.80
2022-12-11T11:47:07.070Z,9.52
2022-12-11T11:50:08.394Z,7.53
2022-12-11T11:52:41.470Z,8.48
2022-12-11T11:55:22.109Z,8.85
2022-12-11T11:57:58.213Z,8.65
2022-12-11T12:00:33.287Z,10.43
2022-12-11T12:03:03.653Z,9.20
2022-12-11T12:05:43.411Z,9.40
2022-12-11T12:08:35.810Z,7.70
2022-12-11T12:13:52.965Z,6.38
2022-12-11T12:16:53.777Z,8.23
2022-12-11T12:19:20.440Z,7.65
2022-12-11T12:21:51.025Z,9.88
2022-12-11T12:24:37.347Z,9.30
2022-12-11T12:27:50.033Z,8.77
2022-12-11T12:30:06.283Z,8.45
2022-12-11T12:32:35.787Z,7.65
2022-12-11T12:35:12.090Z,9.32
2022-12-11T12:37:54.752Z,10.63
2022-12-11T12:41:01.870Z,11.73
2022-12-11T12:43:46.451Z,9.05
2022-12-11T12:46:27.915Z,9.77
2022-12-11T12:48:56.891Z,13.90
2022-12-11T12:51:24.742Z,9.05
2022-12-11T12:54:00.517Z,10.45
2022-12-11T12:56:30.608Z,8.48
2022-12-11T12:58:57.669Z,9.40
2022-12-11T13:01:27.402Z,8.55
2022-12-11T13:04:05.953Z,12.25
2022-12-11T13:06:45.931Z,9.70
2022-12-11T13:09:14.800Z,7.35
2022-12-11T13:11:41.794Z,9.07
2022-12-11T13:14:14.137Z,7.68
2022-12-11T13:16:46.005Z,12.57
2022-12-11T13:19:18.445Z,8.63
2022-12-11T13:22:04.085Z,9.25
2022-12-11T13:24:33.179Z,12.02
2022-12-11T13:27:24.315Z,9.32
2022-12-11T13:29:51.130Z,11.52
2022-12-11T13:32:17.601Z,11.70
2022-12-11T13:34:51.359Z,9.43
2022-12-11T13:37:25.971Z,9.32
2022-12-11T13:39:52.992Z,10.90
2022-12-11T13:42:29.346Z,11.70
2022-12-11T13:44:56.154Z,10.55
2022-12-11T13:47:23.913Z,8.65
2022-12-11T13:49:55.432Z,9.75
2022-12-11T13:52:25.895Z,8.98
2022-12-11T13:54:59.072Z,9.93
2022-12-11T13:57:28.336Z,9.38
2022-12-11T13:59:57.230Z,9.55
2022-12-11T14:02:30.444Z,8.90
2022-12-11T14:05:06.877Z,10.85
2022-12-11T14:07:36.958Z,11.05
2022-12-11T14:10:15.932Z,9.85
2022-12-11T14:13:27.929Z,10.48
2022-12-11T14:15:54.879Z,10.20
2022-12-11T14:18:24.597Z,9.48
2022-12-11T14:20:59.679Z,9.65
2022-12-11T14:23:28.936Z,8.27
2022-12-11T14:26:16.976Z,10.13
2022-12-11T14:28:43.752Z,9.43
2022-12-11T14:31:15.878Z,10.07
2022-12-11T14:33:51.706Z,8.75
2022-12-11T14:36:18.885Z,9.38
2022-12-11T14:38:54.022Z,10.30
2022-12-11T14:41:27.008Z,9.30
2022-12-11T14:43:57.605Z,10.32
2022-12-11T14:46:43.834Z,8.80
2022-12-11T14:49:46.539Z,9.85
2022-12-11T14:52:36.567Z,9.00
2022-12-11T14:55:09.094Z,9.25
2022-12-11T14:57:36.875Z,11.52
2022-12-11T15:00:04.656Z,12.80
2022-12-11T15:02:34.575Z,14.07
2022-12-11T15:05:12.353Z,12.95
2022-12-11T15:07:41.728Z,11.90
2022-12-11T15:10:25.720Z,12.40
2022-12-11T15:12:53.491Z,12.15
2022-12-11T15:15:20.265Z,13.13
2022-12-11T15:17:52.697Z,12.73
2022-12-11T15:20:30.119Z,12.93
2022-12-11T15:23:01.335Z,12.10
2022-12-11T15:25:30.287Z,12.70
2022-12-11T15:27:59.602Z,12.45
2022-12-11T15:30:29.796Z,12.00
2022-12-11T15:33:11.466Z,11.77
2022-12-11T15:35:40.100Z,11.90
2022-12-11T15:38:24.871Z,12.43
2022-12-11T15:40:51.338Z,14.10
2022-12-11T15:43:17.842Z,12.85
2022-12-11T15:45:44.439Z,12.05
2022-12-11T15:48:11.360Z,13.02
2022-12-11T15:50:37.808Z,11.95
2022-12-11T15:53:04.330Z,10.98
2022-12-11T15:55:34.806Z,13.60
2022-12-11T15:58:05.825Z,12.50
2022-12-11T16:00:32.340Z,13.35
2022-12-11T16:02:58.981Z,12.52
2022-12-11T16:05:26.386Z,12.23
2022-12-11T16:07:54.540Z,13.60
2022-12-11T16:10:22.441Z,11.73
2022-12-11T16:12:49.611Z,11.50
2022-12-11T16:15:23.110Z,12.45
2022-12-11T16:17:50.273Z,12.05
2022-12-11T16:20:17.595Z,11.02
2022-12-11T16:22:44.632Z,11.00
2022-12-11T16:25:11.664Z,11.82
2022-12-11T16:27:38.415Z,12.00
2022-12-11T16:30:05.351Z,12.40
2022-12-11T16:32:31.838Z,11.32
2022-12-11T16:35:00.719Z,11.57
2022-12-11T16:37:27.339Z,11.65
2022-12-11T16:39:53.846Z,10.68
2022-12-11T16:42:20.317Z,11.25
2022-12-11T16:44:47.016Z,12.52
2022-12-11T16:47:13.507Z,11.63
2022-12-11T16:49:41.138Z,10.93
2022-12-11T16:52:07.881Z,11.63
2022-12-11T16:54:34.627Z,13.15
2022-12-11T16:57:01.124Z,11.05
2022-12-11T16:59:29.984Z,11.45
2022-12-11T17:01:58.970Z,12.70
2022-12-11T17:04:28.486Z,12.23
2022-12-11T17:06:54.968Z,12.45
2022-12-11T17:09:21.432Z,10.55
2022-12-11T17:11:47.991Z,11.45
2022-12-11T17:14:14.430Z,10.45
2022-12-11T17:16:40.954Z,11.35
2022-12-11T17:19:07.567Z,9.77
2022-12-11T17:21:34.030Z,10.45
2022-12-11T17:24:00.529Z,10.48
2022-12-11T17:26:28.517Z,8.57
2022-12-11T17:28:57.001Z,9.48
2022-12-11T17:31:23.658Z,10.20
2022-12-11T17:33:50.387Z,8.95
2022-12-11T17:36:19.660Z,9.38
2022-12-11T17:38:46.454Z,9.45
2022-12-11T17:41:20.074Z,10.55
2022-12-11T17:43:48.691Z,9.38
2022-12-11T17:46:15.226Z,8.98
2022-12-11T17:48:42.998Z,8.73
2022-12-11T17:51:12.088Z,7.53
2022-12-11T17:53:38.711Z,8.02
2022-12-11T17:56:08.117Z,8.90
2022-12-11T17:58:35.349Z,8.70
2022-12-11T18:01:07.981Z,7.97
2022-12-11T18:03:35.241Z,10.50
2022-12-11T18:06:08.868Z,8.77
2022-12-11T18:08:35.919Z,11.75
2022-12-11T18:11:11.619Z,10.23
2022-12-11T18:13:39.248Z,8.32
2022-12-11T18:16:24.404Z,9.50
2022-12-11T18:18:52.060Z,7.40
2022-12-11T18:21:22.509Z,9.27
2022-12-11T18:23:50.362Z,9.27
2022-12-11T18:26:18.358Z,8.85
2022-12-11T18:28:46.127Z,9.35
2022-12-11T18:31:13.445Z,9.95
2022-12-11T18:33:41.666Z,7.95
2022-12-11T18:36:08.791Z,8.50
2022-12-11T18:38:36.181Z,8.75
2022-12-11T18:41:04.590Z,7.70
2022-12-11T18:43:31.194Z,8.13
2022-12-11T18:45:57.811Z,7.80
2022-12-11T18:48:24.773Z,8.70
2022-12-11T18:50:52.226Z,7.57
2022-12-11T18:53:19.518Z,9.75
2022-12-11T18:55:48.717Z,7.78
2022-12-11T18:58:17.817Z,8.00
2022-12-11T19:00:45.850Z,8.63
2022-12-11T19:03:13.992Z,8.25
2022-12-11T19:05:43.645Z,9.63
2022-12-11T19:08:12.570Z,9.40
2022-12-11T19:10:47.054Z,11.13
2022-12-11T19:13:14.570Z,9.48
2022-12-11T19:15:43.193Z,9.57
2022-12-11T19:18:10.696Z,8.00
2022-12-11T19:21:03.268Z,8.15
2022-12-11T19:23:25.752Z,9.38
2022-12-11T19:25:52.297Z,10.25
2022-12-11T19:28:18.911Z,9.27
2022-12-11T19:30:47.418Z,9.63
2022-12-11T19:33:14.086Z,10.30
2022-12-11T19:35:40.996Z,8.68
2022-12-11T19:38:08.357Z,10.00
2022-12-11T19:40:39.861Z,9.23
2022-12-11T19:43:06.358Z,11.10
2022-12-11T19:45:32.902Z,10.40
2022-12-11T19:47:59.375Z,10.98
2022-12-11T19:50:25.879Z,12.50
2022-12-11T19:52:53.503Z,12.77
2022-12-11T19:55:21.492Z,10.70
2022-12-11T19:57:48.003Z,9.38
2022-12-11T20:00:14.872Z,8.50
2022-12-11T20:02:41.651Z,7.50
2022-12-11T20:05:09.171Z,10.18
2022-12-11T20:07:35.988Z,10.82
2022-12-11T20:10:02.693Z,9.90
2022-12-11T20:12:29.520Z,11.95
2022-12-11T20:14:56.004Z,11.27
2022-12-11T20:17:22.518Z,8.02
2022-12-11T20:19:49.534Z,10.60
2022-12-11T20:22:16.025Z,10.18
2022-12-11T20:24:42.517Z,10.35
2022-12-11T20:27:09.514Z,10.32
2022-12-11T20:29:37.304Z,10.80
2022-12-11T20:32:04.052Z,11.57
2022-12-11T20:34:30.975Z,11.88
2022-12-11T20:36:57.534Z,11.30
2022-12-11T20:39:24.325Z,9.90
2022-12-11T20:41:50.803Z,10.18
2022-12-11T20:44:17.387Z,10.57
2022-12-11T20:46:43.834Z,11.00
2022-12-11T20:49:12.952Z,11.45
2022-12-11T20:51:40.300Z,11.23
2022-12-11T20:54:07.246Z,10.40
2022-12-11T20:56:33.893Z,13.52
2022-12-11T20:59:00.869Z,9.93
2022-12-11T21:01:30.508Z,10.55
2022-12-11T21:03:58.157Z,13.80
2022-12-11T21:06:33.453Z,11.50
2022-12-11T21:09:02.803Z,11.55
2022-12-11T21:11:29.390Z,10.40
2022-12-11T21:13:55.984Z,11.68
2022-12-11T21:16:23.559Z,9.48
2022-12-11T21:18:50.101Z,13.15
2022-12-11T21:21:17.248Z,14.55
2022-12-11T21:23:44.815Z,12.27
2022-12-11T21:26:12.178Z,12.80
2022-12-11T21:28:38.672Z,10.32
2022-12-11T21:31:08.306Z,10.80
2022-12-11T21:33:35.512Z,10.75
2022-12-11T21:36:02.929Z,11.73
2022-12-11T21:38:29.968Z,10.70
2022-12-11T21:40:56.642Z,11.38
2022-12-11T21:43:24.709Z,12.20
2022-12-11T21:46:00.845Z,11.52
2022-12-11T21:48:28.196Z,11.15
2022-12-11T21:50:54.707Z,11.05
2022-12-11T21:53:21.287Z,12.23
2022-12-11T21:55:47.779Z,10.57
2022-12-11T21:58:14.315Z,11.35
2022-12-11T22:00:41.011Z,10.73
2022-12-11T22:03:07.712Z,11.68
2022-12-11T22:05:34.195Z,10.95
2022-12-11T22:08:00.775Z,12.68
2022-12-11T22:10:28.325Z,11.63
2022-12-11T22:12:54.939Z,10.02
2022-12-11T22:15:21.499Z,12.75
2022-12-11T22:17:47.986Z,11.98
2022-12-11T22:20:14.553Z,12.73
2022-12-11T22:22:41.136Z,10.65
2022-12-11T22:25:07.989Z,10.32
2022-12-11T22:27:34.913Z,10.95
2022-12-11T22:30:01.440Z,11.63
2022-12-11T22:32:27.942Z,11.52
2022-12-11T22:34:56.227Z,12.13
2022-12-11T22:37:22.833Z,11.15
2022-12-11T22:39:49.588Z,11.02
2022-12-11T22:42:16.530Z,12.55
2022-12-11T22:44:43.041Z,12.15
2022-12-11T22:47:09.500Z,11.93
2022-12-11T22:49:36.029Z,10.57
2022-12-11T22:52:02.859Z,12.63
2022-12-11T22:54:29.423Z,11.75
2022-12-11T22:56:57.985Z,9.93
2022-12-11T22:59:24.509Z,11.68
2022-12-11T23:01:50.964Z,10.48
2022-12-11T23:04:17.539Z,9.82
2022-12-11T23:06:44.037Z,10.95
2022-12-11T23:09:11.563Z,12.65
2022-12-11T23:11:38.854Z,11.88
2022-12-11T23:14:08.283Z,10.93
2022-12-11T23:16:35.092Z,11.07
2022-12-11T23:19:01.925Z,14.38
2022-12-11T23:21:29.377Z,12.10
2022-12-11T23:23:56.834Z,11.95
2022-12-11T23:26:24.270Z,11.38
2022-12-11T23:28:50.913Z,11.80
2022-12-11T23:31:17.660Z,10.60
2022-12-11T23:33:44.825Z,11.18
2022-12-11T23:36:12.125Z,11.32
2022-12-11T23:38:40.132Z,12.50
2022-12-11T23:41:08.738Z,12.05
2022-12-11T23:43:36.244Z,10.75
2022-12-11T23:46:04.618Z,11.02
2022-12-11T23:48:31.251Z,12.30
2022-12-11T23:50:59.966Z,9.65
2022-12-11T23:53:27.531Z,11.18
2022-12-11T23:55:54.440Z,11.85
2022-12-11T23:58:21.296Z,12.07
